createdAt,value
2016-12-06T00:08:17.850Z,276
2016-12-06T00:19:17.039Z,275.1
2016-12-06T00:30:17.733Z,274.7
2016-12-06T00:41:17.198Z,275.1
2016-12-06T00:52:17.330Z,276.4
2016-12-06T01:03:17.360Z,277.4
2016-12-06T01:14:17.781Z,274.7
2016-12-06T01:25:17.535Z,274.4
2016-12-06T01:36:18.567Z,274.2
2016-12-06T01:47:17.950Z,274.9
2016-12-06T01:58:16.766Z,274.7
2016-12-06T02:09:17.528Z,275
2016-12-06T02:20:17.703Z,274.9
2016-12-06T02:31:17.235Z,275.5
2016-12-06T02:42:17.951Z,274.1
2016-12-06T02:53:17.940Z,274.3
2016-12-06T03:04:17.794Z,274
2016-12-06T03:15:17.425Z,275
2016-12-06T03:26:16.902Z,274.6
2016-12-06T03:37:16.877Z,274.9
2016-12-06T03:48:17.220Z,275.1
2016-12-06T03:59:17.517Z,274.7
2016-12-06T04:10:17.535Z,273.5
2016-12-06T04:21:17.260Z,274.8
2016-12-06T04:32:17.184Z,274.4
2016-12-06T04:43:17.838Z,275.1
2016-12-06T04:54:18.024Z,274
2016-12-06T05:05:16.994Z,276.3
2016-12-06T05:16:18.098Z,276.6
2016-12-06T05:27:17.583Z,273.1
2016-12-06T05:38:17.455Z,274.1
2016-12-06T05:49:17.092Z,274.8
2016-12-06T06:00:17.646Z,275.9
2016-12-06T06:11:17.197Z,275.7
2016-12-06T06:22:17.777Z,273.5
2016-12-06T06:33:18.168Z,274.9
2016-12-06T06:44:16.856Z,277.1
2016-12-06T06:55:17.153Z,275.3
2016-12-06T07:06:17.203Z,274.6
2016-12-06T07:17:17.566Z,275.1
2016-12-06T07:28:17.840Z,275.9
2016-12-06T07:39:17.619Z,274.4
2016-12-06T07:50:17.826Z,276.4
2016-12-06T08:01:19.393Z,275.3
2016-12-06T08:12:17.923Z,274.5
2016-12-06T08:23:16.763Z,276.4
2016-12-06T08:34:18.237Z,275.2
2016-12-06T08:45:17.074Z,276.4
2016-12-06T08:56:16.801Z,276.9
2016-12-06T09:07:17.182Z,273
2016-12-06T09:18:17.921Z,275.4
2016-12-06T09:29:17.761Z,277.5
2016-12-06T09:40:18.173Z,275.9
2016-12-06T09:51:17.327Z,276.9
2016-12-06T10:02:17.497Z,276.3
2016-12-06T10:13:17.822Z,274.8
2016-12-06T10:24:17.647Z,275.9
2016-12-06T10:35:17.303Z,278
2016-12-06T10:46:18.591Z,276.4
2016-12-06T10:57:17.392Z,278.8
2016-12-06T11:08:17.211Z,279.5
2016-12-06T11:19:17.338Z,279.1
2016-12-06T11:30:17.508Z,279.9
2016-12-06T11:41:18.756Z,280.7
2016-12-06T11:52:17.508Z,279.8
2016-12-06T12:03:17.228Z,276.7
2016-12-06T12:14:18.009Z,279.7
2016-12-06T12:25:17.341Z,280.3
2016-12-06T12:36:18.241Z,281.5
2016-12-06T12:47:16.935Z,280.7
2016-12-06T12:58:18.409Z,280.9
2016-12-06T13:09:16.895Z,280.6
2016-12-06T13:20:17.747Z,281.1
2016-12-06T13:31:18.681Z,280.3
2016-12-06T13:42:16.869Z,280.2
2016-12-06T13:53:17.699Z,280.4
2016-12-06T14:04:16.738Z,280
2016-12-06T14:15:17.615Z,280
2016-12-06T14:26:17.126Z,279.9
2016-12-06T14:37:17.576Z,280.6
2016-12-06T14:48:17.598Z,278.6
2016-12-06T14:59:17.541Z,278.3
2016-12-06T15:10:17.860Z,277.7
2016-12-06T15:21:19.061Z,278.5
2016-12-06T15:32:17.682Z,278.2
2016-12-06T15:43:17.280Z,278.6
2016-12-06T15:54:17.493Z,278.4
2016-12-06T16:05:16.839Z,278.6
2016-12-06T16:16:17.141Z,278.2
2016-12-06T16:27:17.437Z,278.8
2016-12-06T16:38:18.115Z,278.5
2016-12-06T16:49:17.172Z,279
2016-12-06T17:00:17.100Z,278.5
2016-12-06T17:11:18.785Z,278.4
2016-12-06T17:22:17.388Z,278.5
2016-12-06T17:33:16.837Z,278.1
2016-12-06T17:44:17.380Z,278.9
2016-12-06T17:55:16.811Z,278.2
2016-12-06T18:06:19.146Z,278.8
2016-12-06T18:17:17.124Z,279
2016-12-06T18:28:17.012Z,278.6
2016-12-06T18:39:17.503Z,278.5
2016-12-06T18:50:17.909Z,279.9
2016-12-06T19:01:16.831Z,278.7
2016-12-06T19:12:18.683Z,278.6
2016-12-06T19:23:17.541Z,280.2
2016-12-06T19:34:17.602Z,278.3
2016-12-06T19:45:17.537Z,278.3
2016-12-06T19:56:17.268Z,278.3
2016-12-06T20:07:17.432Z,278
2016-12-06T20:18:16.962Z,278.3
2016-12-06T20:29:17.249Z,278.2
2016-12-06T20:40:17.617Z,277.7
2016-12-06T20:51:17.000Z,276.6
2016-12-06T21:02:16.983Z,277
2016-12-06T21:13:17.344Z,278.1
2016-12-06T21:24:17.439Z,276.2
2016-12-06T21:35:17.633Z,275.2
2016-12-06T21:46:18.223Z,275.3
2016-12-06T21:57:17.317Z,275.9
2016-12-06T22:08:17.395Z,274.2
2016-12-06T22:19:17.603Z,274.9
2016-12-06T22:30:18.328Z,277
2016-12-06T22:41:17.706Z,276.6
2016-12-06T22:52:17.631Z,276.7
2016-12-06T23:03:17.307Z,277.2
2016-12-06T23:14:17.707Z,277.2
2016-12-06T23:25:17.632Z,277.2
2016-12-06T23:36:17.100Z,276.9
2016-12-06T23:47:17.623Z,277.2
2016-12-06T23:58:16.937Z,276
